Kingston Springs, TN (37082)

12:19 PM CDT on March 27, 2017 (GMT -0500)
Wren Ridge | | Change Station

Elev 750 ft 36.10 °N, 87.04 °W | Updated 1 minute ago

Mostly Cloudy
Mostly Cloudy
70.8 °F
Feels Like 74 °F
N
5.0
Wind Variable Wind from SSW
Gusts 5.0 mph

Today
High -- | Low -- °F
--% Chance of Precip.
Yesterday
High -- | Low -- °F
Precip. -- in
Pressure 29.95 in
Visibility 10.0 miles
Clouds Scattered Clouds 2700 ft
Mostly Cloudy 3400 ft
Mostly Cloudy 16000 ft
Overcast 25000 ft
Heat Index 74 °F
Dew Point 60 °F
Humidity 69%
Rainfall 0.00 in
Snow Depth Not available.
6:41 AM 7:06 PM
Waning Crescent, 0% visible
METAR KBNA 271653Z 21013KT 10SM SCT027 BKN034 BKN160 OVC250 23/16 A2996 RMK AO2 SLP140 SML BINOVC T02330156
Pressure 29.95 in
Visibility 10.0 miles
Clouds Scattered Clouds 2700 ft
Mostly Cloudy 3400 ft
Mostly Cloudy 16000 ft
Overcast 25000 ft
Heat Index 74 °F
Dew Point 60 °F
Humidity 69%
Rainfall 0.00 in
Snow Depth Not available.
6:41 AM 7:06 PM
Waning Crescent, 0% visible
METAR KBNA 271653Z 21013KT 10SM SCT027 BKN034 BKN160 OVC250 23/16 A2996 RMK AO2 SLP140 SML BINOVC T02330156

Get Severe Weather Alerts

Thanks for signing up!

Be on the lookout for a verification email in your inbox.

You'll start receiving the daily forecast at 8 AM.

×

10-Day Weather Forecast

Almanac

Astronomy

Mar. 27, 2017 Rise Set
Actual Time
Civil Twilight
Nautical Twilight
Astronomical Twilight
Moon
Length of Visible Light
Length of Day
Tomorrow will be .
, % of the Moon is Illuminated

Today's Extremes

State Highs State Lows

Community

WunderPhotos

Upload Photos

1,962,540 photos uploaded!

WunderBlog® & News

Nearby

Air Quality

  Air Quality AQ Index Pollutant
Not available.

Snow Depth

Station Depth Elevation

Earthquake Activity

City Distance Mag. Time & Date
Minimum magnitude displayed is 2.5.

Earthquake Activity

City Distance Mag. Time & Date
Minimum magnitude displayed is 2.5.

Coastal Water Temperatures

Place Temperature

Stations

Nearby Weather Stations

Station Location Temp. Windchill Dew Point Humidity Wind Precip. Elev Updated Type
                   

Watches & Warnings

There are currently no watches in effect.